createdAt,value
2022-11-30T00:01:31.106Z,3.42
2022-11-30T00:03:59.028Z,3.44
2022-11-30T00:06:26.915Z,3.54
2022-11-30T00:08:55.800Z,3.55
2022-11-30T00:11:24.444Z,3.41
2022-11-30T00:13:52.238Z,3.45
2022-11-30T00:16:20.084Z,3.54
2022-11-30T00:18:47.949Z,3.57
2022-11-30T00:21:16.414Z,3.64
2022-11-30T00:23:46.570Z,3.52
2022-11-30T00:26:18.862Z,3.03
2022-11-30T00:28:47.618Z,3.50
2022-11-30T00:31:17.445Z,3.64
2022-11-30T00:33:45.482Z,3.67
2022-11-30T00:36:14.552Z,3.59
2022-11-30T00:38:43.600Z,3.22
2022-11-30T00:41:11.716Z,3.57
2022-11-30T00:43:39.407Z,3.60
2022-11-30T00:46:09.212Z,3.62
2022-11-30T00:48:37.909Z,3.65
2022-11-30T00:51:06.024Z,3.70
2022-11-30T00:53:33.769Z,3.72
2022-11-30T00:56:01.469Z,3.61
2022-11-30T00:58:29.251Z,3.59
2022-11-30T01:00:57.257Z,3.55
2022-11-30T01:03:25.070Z,3.63
2022-11-30T01:05:52.754Z,3.60
2022-11-30T01:08:20.710Z,3.51
2022-11-30T01:10:53.311Z,3.64
2022-11-30T01:13:21.052Z,3.63
2022-11-30T01:15:48.785Z,3.61
2022-11-30T01:18:17.042Z,3.56
2022-11-30T01:20:45.061Z,3.38
2022-11-30T01:23:13.013Z,3.59
2022-11-30T01:25:40.995Z,3.50
2022-11-30T01:28:11.240Z,3.47
2022-11-30T01:30:38.935Z,3.66
2022-11-30T01:33:07.806Z,3.67
2022-11-30T01:35:35.428Z,3.78
2022-11-30T01:38:03.126Z,3.74
2022-11-30T01:40:30.835Z,3.79
2022-11-30T01:42:58.517Z,3.59
2022-11-30T01:45:26.422Z,3.57
2022-11-30T01:47:57.906Z,3.56
2022-11-30T01:50:31.730Z,3.52
2022-11-30T01:53:00.068Z,3.55
2022-11-30T01:55:32.955Z,3.44
2022-11-30T01:58:09.464Z,3.54
2022-11-30T02:00:37.253Z,3.48
2022-11-30T02:03:23.097Z,3.45
2022-11-30T02:05:50.935Z,3.59
2022-11-30T02:08:19.919Z,3.48
2022-11-30T02:10:54.633Z,3.42
2022-11-30T02:13:38.364Z,3.49
2022-11-30T02:16:39.078Z,3.45
2022-11-30T02:19:15.811Z,3.53
2022-11-30T02:22:04.813Z,3.45
2022-11-30T02:24:51.929Z,3.37
2022-11-30T02:27:47.071Z,3.46
2022-11-30T02:30:17.715Z,3.42
2022-11-30T02:33:04.180Z,3.41
2022-11-30T02:35:35.884Z,3.40
2022-11-30T02:38:05.603Z,3.43
2022-11-30T02:40:33.386Z,3.50
2022-11-30T02:43:03.425Z,3.55
2022-11-30T02:45:42.925Z,3.72
2022-11-30T02:48:13.396Z,3.73
2022-11-30T02:50:48.277Z,3.75
2022-11-30T02:53:15.970Z,3.68
2022-11-30T02:55:43.740Z,3.68
2022-11-30T02:58:11.926Z,3.65
2022-11-30T03:00:39.654Z,3.56
2022-11-30T03:03:07.495Z,3.60
2022-11-30T03:05:35.431Z,3.57
2022-11-30T03:08:03.137Z,3.78
2022-11-30T03:10:30.793Z,3.80
2022-11-30T03:12:59.651Z,3.70
2022-11-30T03:15:28.221Z,3.65
2022-11-30T03:17:55.874Z,3.60
2022-11-30T03:20:23.573Z,3.62
2022-11-30T03:22:51.255Z,3.70
2022-11-30T03:25:18.977Z,3.60
2022-11-30T03:27:46.637Z,3.66
2022-11-30T03:30:14.570Z,3.76
2022-11-30T03:32:42.252Z,3.78
2022-11-30T03:35:11.776Z,3.77
2022-11-30T03:37:39.449Z,3.71
2022-11-30T03:40:07.907Z,3.77
2022-11-30T03:42:35.642Z,3.79
2022-11-30T03:45:03.443Z,3.74
2022-11-30T03:47:31.276Z,3.72
2022-11-30T03:49:59.030Z,3.70
2022-11-30T03:52:26.675Z,3.82
2022-11-30T03:54:54.453Z,3.87
2022-11-30T03:57:22.109Z,3.84
2022-11-30T03:59:49.815Z,3.82
2022-11-30T04:02:17.487Z,3.81
2022-11-30T04:04:45.567Z,3.86
2022-11-30T04:07:13.536Z,3.85
2022-11-30T04:09:41.264Z,3.85
2022-11-30T04:12:09.214Z,3.86
2022-11-30T04:14:36.935Z,3.86
2022-11-30T04:17:04.671Z,3.88
2022-11-30T04:19:32.391Z,3.85
2022-11-30T04:22:00.056Z,3.88
2022-11-30T04:24:27.741Z,3.95
2022-11-30T04:26:55.444Z,3.96
2022-11-30T04:29:23.132Z,3.88
2022-11-30T04:31:50.823Z,3.91
2022-11-30T04:34:18.531Z,3.95
2022-11-30T04:36:46.247Z,3.89
2022-11-30T04:39:13.929Z,3.97
2022-11-30T04:41:41.602Z,4.02
2022-11-30T04:44:09.349Z,3.94
2022-11-30T04:46:38.043Z,3.96
2022-11-30T04:49:05.894Z,3.95
2022-11-30T04:51:33.604Z,3.94
2022-11-30T04:54:01.337Z,3.56
2022-11-30T04:56:29.045Z,3.99
2022-11-30T04:58:56.678Z,4.05
2022-11-30T05:01:24.428Z,3.99
2022-11-30T05:03:52.182Z,4.03
2022-11-30T05:06:19.972Z,4.04
2022-11-30T05:08:47.648Z,3.99
2022-11-30T05:11:15.331Z,4.03
2022-11-30T05:13:42.998Z,4.02
2022-11-30T05:16:10.813Z,3.99
2022-11-30T05:18:38.569Z,4.06
2022-11-30T05:21:06.890Z,3.95
2022-11-30T05:23:34.571Z,4.07
2022-11-30T05:26:05.879Z,4.09
2022-11-30T05:28:33.589Z,4.02
2022-11-30T05:31:06.138Z,4.10
2022-11-30T05:33:34.335Z,4.09
2022-11-30T05:36:04.632Z,4.05
2022-11-30T05:38:34.953Z,4.01
2022-11-30T05:41:03.523Z,4.11
2022-11-30T05:43:31.242Z,4.17
2022-11-30T05:46:03.259Z,4.20
2022-11-30T05:48:31.656Z,4.16
2022-11-30T05:51:25.938Z,4.10
2022-11-30T05:53:53.685Z,4.10
2022-11-30T05:56:22.632Z,4.09
2022-11-30T05:58:50.294Z,4.07
2022-11-30T06:01:23.403Z,4.20
2022-11-30T06:03:51.694Z,4.09
2022-11-30T06:06:19.922Z,4.18
2022-11-30T06:08:50.589Z,4.15
2022-11-30T06:11:18.630Z,4.19
2022-11-30T06:13:46.325Z,4.22
2022-11-30T06:16:14.107Z,4.13
2022-11-30T06:18:41.988Z,4.20
2022-11-30T06:21:12.206Z,4.21
2022-11-30T06:23:39.949Z,4.11
2022-11-30T06:26:13.189Z,4.20
2022-11-30T06:28:45.414Z,4.18
2022-11-30T06:31:15.852Z,4.10
2022-11-30T06:33:43.766Z,4.16
2022-11-30T06:36:11.707Z,4.26
2022-11-30T06:38:39.382Z,4.16
2022-11-30T06:41:09.290Z,4.16
2022-11-30T06:43:38.394Z,4.16
2022-11-30T06:46:07.715Z,4.23
2022-11-30T06:48:36.819Z,4.17
2022-11-30T06:51:11.588Z,4.16
2022-11-30T06:53:39.242Z,4.24
2022-11-30T06:56:10.714Z,4.23
2022-11-30T06:58:42.885Z,4.14
2022-11-30T07:01:14.196Z,4.04
2022-11-30T07:03:43.530Z,3.83
2022-11-30T07:06:16.405Z,3.93
2022-11-30T07:08:44.847Z,4.09
2022-11-30T07:11:13.422Z,4.04
2022-11-30T07:13:41.118Z,3.91
2022-11-30T07:16:11.350Z,4.08
2022-11-30T07:18:39.134Z,4.04
2022-11-30T07:21:07.894Z,3.94
2022-11-30T07:23:56.692Z,4.01
2022-11-30T07:26:25.803Z,3.92
2022-11-30T07:28:58.237Z,4.06
2022-11-30T07:31:29.496Z,4.09
2022-11-30T07:33:58.769Z,4.12
2022-11-30T07:36:30.240Z,4.12
2022-11-30T07:38:58.009Z,4.17
2022-11-30T07:41:25.785Z,4.17
2022-11-30T07:43:53.453Z,4.13
2022-11-30T07:46:21.190Z,4.12
2022-11-30T07:48:48.931Z,4.15
2022-11-30T07:51:19.172Z,4.27
2022-11-30T07:53:47.452Z,4.21
2022-11-30T07:56:21.046Z,4.44
2022-11-30T07:58:50.566Z,4.51
2022-11-30T08:01:21.559Z,4.53
2022-11-30T08:03:50.791Z,4.58
2022-11-30T08:06:23.763Z,4.57
2022-11-30T08:08:53.723Z,4.45
2022-11-30T08:11:27.079Z,4.65
2022-11-30T08:13:55.513Z,4.71
2022-11-30T08:16:26.337Z,4.75
2022-11-30T08:18:54.437Z,4.75
2022-11-30T08:21:22.591Z,4.55
2022-11-30T08:23:53.145Z,4.76
2022-11-30T08:26:32.662Z,4.70
2022-11-30T08:29:01.907Z,4.64
2022-11-30T08:31:35.317Z,4.67
2022-11-30T08:34:06.649Z,4.73
2022-11-30T08:36:34.676Z,4.71
2022-11-30T08:39:05.008Z,4.39
2022-11-30T08:41:33.560Z,4.71
2022-11-30T08:44:01.612Z,4.69
2022-11-30T08:49:21.969Z,4.76
2022-11-30T08:57:34.266Z,4.84
2022-11-30T09:00:01.980Z,4.93
2022-11-30T09:02:29.690Z,4.91
2022-11-30T09:04:57.452Z,4.92
2022-11-30T09:07:25.139Z,5.01
2022-11-30T09:09:52.888Z,5.03
2022-11-30T09:12:20.575Z,5.01
2022-11-30T09:14:55.911Z,5.02
2022-11-30T09:17:25.545Z,4.91
2022-11-30T09:19:54.695Z,4.95
2022-11-30T09:22:22.418Z,5.02
2022-11-30T09:24:50.366Z,5.09
2022-11-30T09:27:18.221Z,5.11
2022-11-30T09:29:45.944Z,5.06
2022-11-30T09:32:13.678Z,5.04
2022-11-30T09:34:41.350Z,5.09
2022-11-30T09:37:09.377Z,5.01
2022-11-30T09:39:37.074Z,4.99
2022-11-30T09:42:33.273Z,5.02
2022-11-30T09:45:14.846Z,4.99
2022-11-30T09:48:14.780Z,4.97
2022-11-30T09:50:48.353Z,4.97
2022-11-30T09:53:29.938Z,4.86
2022-11-30T09:55:59.902Z,4.90
2022-11-30T09:58:59.986Z,4.91
2022-11-30T10:01:32.042Z,4.90
2022-11-30T10:04:01.627Z,4.97
2022-11-30T10:06:51.397Z,4.87
2022-11-30T10:09:40.824Z,4.90
2022-11-30T10:12:14.522Z,4.92
2022-11-30T10:14:59.842Z,4.88
2022-11-30T10:17:45.272Z,5.00
2022-11-30T10:20:23.319Z,4.91
2022-11-30T10:23:28.392Z,4.78
2022-11-30T10:26:05.590Z,4.74
2022-11-30T10:28:53.653Z,4.83
2022-11-30T10:31:35.049Z,4.96
2022-11-30T10:34:17.301Z,4.82
2022-11-30T10:36:47.607Z,4.88
2022-11-30T10:39:42.714Z,4.92
2022-11-30T10:42:20.302Z,4.79
2022-11-30T10:45:06.647Z,4.89
2022-11-30T10:47:37.728Z,4.96
2022-11-30T10:50:07.215Z,5.01
2022-11-30T10:52:49.986Z,4.92
2022-11-30T10:55:24.388Z,4.97
2022-11-30T10:57:58.033Z,4.95
2022-11-30T11:00:25.938Z,4.97
2022-11-30T11:02:53.774Z,4.94
2022-11-30T11:05:26.225Z,4.90
2022-11-30T11:08:05.745Z,4.84
2022-11-30T11:10:41.093Z,4.86
2022-11-30T11:13:17.785Z,4.94
2022-11-30T11:16:00.605Z,4.88
2022-11-30T11:18:29.569Z,4.90
2022-11-30T11:21:19.946Z,4.95
2022-11-30T11:23:50.457Z,4.87
2022-11-30T11:26:21.957Z,4.97
2022-11-30T11:28:52.949Z,4.88
2022-11-30T11:31:43.246Z,4.86
2022-11-30T11:34:34.441Z,4.82
2022-11-30T11:37:18.770Z,4.85
2022-11-30T11:40:03.553Z,4.71
2022-11-30T11:42:38.480Z,4.76
2022-11-30T11:45:07.580Z,4.76
2022-11-30T11:47:41.449Z,4.80
2022-11-30T11:51:04.825Z,4.81
2022-11-30T11:53:41.363Z,4.74
2022-11-30T11:56:31.951Z,4.86
2022-11-30T11:59:04.211Z,4.83
2022-11-30T12:01:41.503Z,4.94
2022-11-30T12:04:34.164Z,4.95
2022-11-30T12:07:15.042Z,4.87
2022-11-30T12:09:55.810Z,4.83
2022-11-30T12:12:23.518Z,4.90
2022-11-30T12:14:51.215Z,4.97
2022-11-30T12:17:41.642Z,4.90
2022-11-30T12:20:37.292Z,4.95
2022-11-30T12:23:14.103Z,4.92
2022-11-30T12:26:01.364Z,5.01
2022-11-30T12:28:41.191Z,5.06
2022-11-30T12:31:19.589Z,5.05
2022-11-30T12:34:25.494Z,5.09
2022-11-30T12:37:11.082Z,5.06
2022-11-30T12:39:51.845Z,5.05
2022-11-30T12:42:19.502Z,5.03
2022-11-30T12:45:07.118Z,5.08
2022-11-30T12:48:00.853Z,5.16
2022-11-30T12:50:51.774Z,5.20
2022-11-30T12:53:27.057Z,5.18
2022-11-30T12:55:59.056Z,5.08
2022-11-30T12:58:44.852Z,5.10
2022-11-30T13:01:58.748Z,5.05
2022-11-30T13:04:31.585Z,5.02
2022-11-30T13:07:04.447Z,5.06
2022-11-30T13:09:42.684Z,4.93
2022-11-30T13:12:14.931Z,4.95
2022-11-30T13:14:42.673Z,4.96
2022-11-30T13:17:18.824Z,4.90
2022-11-30T13:20:16.092Z,4.76
2022-11-30T13:23:02.072Z,4.73
2022-11-30T13:26:10.127Z,4.75
2022-11-30T13:28:43.846Z,4.75
2022-11-30T13:32:56.799Z,4.75
2022-11-30T13:35:42.715Z,4.71
2022-11-30T13:38:36.371Z,4.65
2022-11-30T13:41:07.393Z,4.60
2022-11-30T13:43:48.374Z,4.69
2022-11-30T13:46:23.670Z,4.74
2022-11-30T13:49:19.144Z,4.69
2022-11-30T13:51:53.068Z,4.33
2022-11-30T13:54:53.919Z,4.68
2022-11-30T13:57:30.568Z,4.68
2022-11-30T13:59:59.375Z,4.62
2022-11-30T14:02:33.015Z,4.54
2022-11-30T14:05:18.913Z,4.53
2022-11-30T14:08:02.033Z,4.49
2022-11-30T14:10:31.593Z,4.42
2022-11-30T14:13:06.537Z,4.49
2022-11-30T14:15:40.830Z,4.52
2022-11-30T14:18:08.473Z,4.56
2022-11-30T14:21:15.079Z,4.60
2022-11-30T14:24:00.065Z,4.52
2022-11-30T14:26:37.201Z,4.47
2022-11-30T14:29:16.804Z,4.61
2022-11-30T14:32:11.518Z,4.65
2022-11-30T14:34:43.200Z,4.67
2022-11-30T14:37:20.610Z,4.65
2022-11-30T14:39:50.027Z,4.56
2022-11-30T14:42:30.117Z,4.62
2022-11-30T14:44:58.553Z,4.55
2022-11-30T14:47:35.082Z,4.59
2022-11-30T14:50:06.037Z,4.60
2022-11-30T14:52:55.880Z,4.57
2022-11-30T14:55:35.019Z,4.65
2022-11-30T14:58:21.376Z,4.58
2022-11-30T15:00:50.758Z,4.38
2022-11-30T15:03:26.776Z,4.50
2022-11-30T15:06:00.811Z,4.47
2022-11-30T15:08:36.113Z,4.43
2022-11-30T15:11:06.833Z,4.45
2022-11-30T15:13:38.787Z,4.40
2022-11-30T15:16:10.205Z,4.47
2022-11-30T15:18:40.299Z,4.41
2022-11-30T15:21:15.511Z,4.39
2022-11-30T15:23:47.970Z,4.32
2022-11-30T15:26:30.326Z,4.38
2022-11-30T15:29:04.486Z,4.37
2022-11-30T15:31:39.199Z,4.35
2022-11-30T15:34:08.327Z,4.37
2022-11-30T15:36:38.608Z,4.28
2022-11-30T15:39:17.479Z,3.98
2022-11-30T15:41:45.178Z,4.37
2022-11-30T15:44:45.470Z,4.36
2022-11-30T15:47:47.216Z,4.35
2022-11-30T15:50:37.113Z,4.29
2022-11-30T15:53:26.790Z,4.30
2022-11-30T15:55:58.306Z,4.37
2022-11-30T15:58:31.943Z,4.33
2022-11-30T16:01:15.538Z,4.32
2022-11-30T16:04:04.426Z,4.22
2022-11-30T16:06:46.823Z,4.25
2022-11-30T16:09:24.014Z,4.18
2022-11-30T16:11:57.064Z,4.30
2022-11-30T16:14:24.802Z,4.24
2022-11-30T16:16:53.799Z,4.18
2022-11-30T16:19:21.836Z,4.10
2022-11-30T16:21:50.385Z,3.89
2022-11-30T16:24:18.647Z,4.14
2022-11-30T16:26:53.572Z,4.05
2022-11-30T16:29:21.579Z,4.12
2022-11-30T16:31:49.411Z,4.11
2022-11-30T16:34:17.163Z,4.09
2022-11-30T16:36:44.798Z,3.99
2022-11-30T16:39:13.769Z,4.00
2022-11-30T16:41:41.731Z,4.00
2022-11-30T16:44:14.447Z,3.96
2022-11-30T16:46:42.213Z,3.93
2022-11-30T16:49:09.950Z,3.95
2022-11-30T16:51:37.771Z,3.97
2022-11-30T16:54:05.638Z,3.56
2022-11-30T16:56:33.610Z,3.92
2022-11-30T16:59:01.294Z,3.93
2022-11-30T17:01:36.636Z,3.91
2022-11-30T17:04:19.346Z,3.81
2022-11-30T17:06:50.684Z,3.84
2022-11-30T17:09:20.766Z,3.76
2022-11-30T17:11:52.130Z,3.82
2022-11-30T17:14:22.102Z,3.69
2022-11-30T17:16:49.993Z,3.72
2022-11-30T17:19:17.828Z,3.59
2022-11-30T17:21:45.840Z,3.78
2022-11-30T17:24:13.606Z,3.83
2022-11-30T17:26:41.759Z,3.76
2022-11-30T17:29:09.494Z,3.76
2022-11-30T17:31:37.222Z,3.68
2022-11-30T17:34:05.035Z,3.70
2022-11-30T17:36:32.774Z,3.77
2022-11-30T17:39:00.469Z,3.77
2022-11-30T17:41:28.194Z,3.78
2022-11-30T17:43:55.948Z,3.81
2022-11-30T17:46:23.718Z,3.82
2022-11-30T17:48:51.495Z,3.80
2022-11-30T17:51:19.445Z,3.74
2022-11-30T17:53:47.272Z,3.76
2022-11-30T17:56:17.170Z,3.90
2022-11-30T17:58:46.309Z,3.76
2022-11-30T18:01:22.445Z,3.62
2022-11-30T18:03:50.607Z,3.72
2022-11-30T18:06:18.385Z,3.75
2022-11-30T18:08:46.371Z,3.35
2022-11-30T18:11:16.856Z,3.72
2022-11-30T18:13:44.965Z,3.83
2022-11-30T18:16:12.693Z,3.73
2022-11-30T18:18:47.115Z,3.78
2022-11-30T18:21:17.728Z,3.82
2022-11-30T18:23:46.195Z,3.73
2022-11-30T18:26:16.975Z,3.68
2022-11-30T18:28:44.932Z,3.80
2022-11-30T18:31:13.358Z,3.74
2022-11-30T18:33:41.267Z,3.86
2022-11-30T18:36:09.284Z,3.88
2022-11-30T18:38:38.963Z,3.76
2022-11-30T18:41:07.661Z,3.73
2022-11-30T18:43:35.962Z,3.79
2022-11-30T18:46:11.820Z,3.83
2022-11-30T18:48:40.878Z,3.80
2022-11-30T18:51:18.701Z,3.85
2022-11-30T18:53:46.856Z,3.77
2022-11-30T18:56:17.783Z,3.80
2022-11-30T18:58:46.377Z,3.80
2022-11-30T19:01:17.471Z,3.91
2022-11-30T19:03:50.387Z,3.84
2022-11-30T19:06:18.320Z,3.78
2022-11-30T19:08:47.672Z,3.54
2022-11-30T19:11:16.791Z,3.82
2022-11-30T19:13:45.605Z,3.67
2022-11-30T19:16:16.100Z,3.80
2022-11-30T19:18:45.003Z,3.73
2022-11-30T19:21:18.267Z,3.84
2022-11-30T19:23:46.931Z,3.83
2022-11-30T19:26:15.435Z,3.79
2022-11-30T19:28:44.812Z,3.79
2022-11-30T19:31:18.123Z,3.75
2022-11-30T19:33:50.886Z,3.70
2022-11-30T19:36:29.311Z,3.65
2022-11-30T19:38:59.316Z,3.83
2022-11-30T19:41:27.799Z,3.85
2022-11-30T19:44:02.799Z,3.80
2022-11-30T19:46:31.848Z,3.90
2022-11-30T19:49:01.814Z,3.76
2022-11-30T19:51:31.608Z,3.85
2022-11-30T19:54:00.357Z,3.82
2022-11-30T19:56:30.164Z,3.80
2022-11-30T19:59:04.043Z,3.75
2022-11-30T20:01:32.712Z,3.79
2022-11-30T20:04:00.482Z,3.75
2022-11-30T20:06:34.213Z,3.74
2022-11-30T20:09:01.982Z,3.65
2022-11-30T20:11:29.920Z,3.67
2022-11-30T20:13:58.415Z,3.69
2022-11-30T20:16:26.303Z,3.65
2022-11-30T20:18:56.892Z,3.77
2022-11-30T20:21:29.777Z,3.71
2022-11-30T20:23:59.926Z,3.63
2022-11-30T20:26:33.683Z,3.72
2022-11-30T20:29:02.938Z,3.60
2022-11-30T20:31:32.629Z,3.53
2022-11-30T20:34:00.495Z,3.58
2022-11-30T20:36:28.739Z,3.70
2022-11-30T20:38:56.447Z,3.68
2022-11-30T20:41:25.595Z,3.60
2022-11-30T20:43:53.777Z,3.64
2022-11-30T20:46:30.356Z,3.65
2022-11-30T20:48:58.826Z,3.73
2022-11-30T20:51:31.360Z,3.60
2022-11-30T20:54:05.675Z,3.65
2022-11-30T20:56:37.628Z,3.57
2022-11-30T20:59:06.491Z,3.64
2022-11-30T21:01:34.945Z,3.56
2022-11-30T21:04:02.862Z,3.47
2022-11-30T21:06:31.431Z,3.54
2022-11-30T21:08:59.781Z,3.51
2022-11-30T21:11:29.063Z,3.59
2022-11-30T21:13:58.470Z,3.67
2022-11-30T21:16:29.462Z,3.56
2022-11-30T21:18:59.596Z,3.43
2022-11-30T21:21:31.187Z,3.44
2022-11-30T21:24:01.283Z,3.42
2022-11-30T21:26:35.058Z,3.42
2022-11-30T21:29:11.230Z,3.46
2022-11-30T21:31:39.089Z,3.49
2022-11-30T21:34:07.030Z,3.48
2022-11-30T21:36:34.821Z,3.31
2022-11-30T21:39:06.614Z,3.36
2022-11-30T21:41:40.219Z,3.29
2022-11-30T21:44:11.242Z,3.43
2022-11-30T21:46:39.018Z,3.49
2022-11-30T21:49:07.510Z,3.54
2022-11-30T21:51:35.519Z,3.49
2022-11-30T21:54:06.370Z,3.49
2022-11-30T21:56:36.601Z,3.50
2022-11-30T21:59:09.544Z,3.58
2022-11-30T22:01:42.196Z,3.48
2022-11-30T22:04:12.278Z,3.45
2022-11-30T22:06:41.183Z,3.49
2022-11-30T22:09:13.048Z,3.52
2022-11-30T22:11:41.583Z,3.51
2022-11-30T22:14:15.522Z,3.30
2022-11-30T22:16:43.969Z,3.47
2022-11-30T22:19:11.778Z,3.51
2022-11-30T22:21:41.342Z,3.46
2022-11-30T22:24:13.451Z,3.49
2022-11-30T22:26:43.257Z,3.53
2022-11-30T22:29:17.139Z,3.49
2022-11-30T22:31:46.764Z,3.50
2022-11-30T22:34:14.875Z,3.49
2022-11-30T22:36:44.271Z,3.52
2022-11-30T22:39:22.359Z,3.49
2022-11-30T22:41:55.485Z,3.46
2022-11-30T22:44:25.547Z,3.41
2022-11-30T22:46:53.371Z,3.46
2022-11-30T22:49:22.151Z,3.53
2022-11-30T22:51:50.866Z,3.52
2022-11-30T22:54:19.132Z,3.48
2022-11-30T22:56:47.115Z,3.26
2022-11-30T22:59:16.057Z,3.50
2022-11-30T23:01:46.624Z,3.49
2022-11-30T23:04:17.099Z,3.45
2022-11-30T23:06:45.397Z,3.44
2022-11-30T23:09:16.388Z,3.47
2022-11-30T23:11:44.321Z,3.47
2022-11-30T23:14:12.402Z,3.42
2022-11-30T23:16:41.239Z,3.52
2022-11-30T23:19:09.947Z,3.54
2022-11-30T23:21:44.748Z,3.22
2022-11-30T23:24:20.259Z,3.41
2022-11-30T23:26:48.306Z,3.54
2022-11-30T23:29:17.761Z,3.53
2022-11-30T23:31:47.200Z,3.53
2022-11-30T23:34:18.541Z,3.41
2022-11-30T23:36:46.700Z,3.39
2022-11-30T23:39:17.253Z,3.33
2022-11-30T23:41:45.785Z,3.37
2022-11-30T23:44:14.129Z,3.49
2022-11-30T23:46:42.176Z,3.39
2022-11-30T23:49:09.970Z,3.46
2022-11-30T23:51:37.859Z,3.43
2022-11-30T23:54:05.996Z,3.45
2022-11-30T23:56:33.745Z,3.31
2022-11-30T23:59:01.494Z,3.26
